sensor_id;sensor_type;location;lat;lon;timestamp;P1;durP1;ratioP1;P2;durP2;ratioP2
49738;SDS011;53662;50.114;8.626;2024-03-07T00:00:42;45.83;;;27.33;;
49738;SDS011;53662;50.114;8.626;2024-03-07T00:03:08;48.30;;;30.58;;
49738;SDS011;53662;50.114;8.626;2024-03-07T00:06:17;51.38;;;29.92;;
49738;SDS011;53662;50.114;8.626;2024-03-07T00:09:05;46.83;;;29.42;;
49738;SDS011;53662;50.114;8.626;2024-03-07T00:11:41;46.05;;;28.85;;
49738;SDS011;53662;50.114;8.626;2024-03-07T00:14:09;45.67;;;29.48;;
49738;SDS011;53662;50.114;8.626;2024-03-07T00:16:35;51.83;;;31.40;;
49738;SDS011;53662;50.114;8.626;2024-03-07T00:19:04;51.35;;;29.90;;
49738;SDS011;53662;50.114;8.626;2024-03-07T00:21:30;50.83;;;30.58;;
49738;SDS011;53662;50.114;8.626;2024-03-07T00:23:56;48.78;;;31.58;;
49738;SDS011;53662;50.114;8.626;2024-03-07T00:26:22;47.80;;;29.95;;
49738;SDS011;53662;50.114;8.626;2024-03-07T00:28:51;52.42;;;31.65;;
49738;SDS011;53662;50.114;8.626;2024-03-07T00:31:17;53.65;;;30.17;;
49738;SDS011;53662;50.114;8.626;2024-03-07T00:33:44;48.22;;;30.33;;
49738;SDS011;53662;50.114;8.626;2024-03-07T00:36:10;43.95;;;28.40;;
49738;SDS011;53662;50.114;8.626;2024-03-07T00:38:37;52.45;;;31.83;;
49738;SDS011;53662;50.114;8.626;2024-03-07T00:41:06;47.58;;;31.20;;
49738;SDS011;53662;50.114;8.626;2024-03-07T00:43:32;48.05;;;30.65;;
49738;SDS011;53662;50.114;8.626;2024-03-07T00:45:58;50.97;;;31.95;;
49738;SDS011;53662;50.114;8.626;2024-03-07T00:48:23;50.65;;;30.85;;
49738;SDS011;53662;50.114;8.626;2024-03-07T00:50:49;51.83;;;31.67;;
49738;SDS011;53662;50.114;8.626;2024-03-07T00:53:15;49.63;;;30.27;;
49738;SDS011;53662;50.114;8.626;2024-03-07T00:55:41;50.47;;;30.77;;
49738;SDS011;53662;50.114;8.626;2024-03-07T00:58:09;44.63;;;29.20;;
49738;SDS011;53662;50.114;8.626;2024-03-07T01:00:35;49.45;;;29.42;;
49738;SDS011;53662;50.114;8.626;2024-03-07T01:03:01;47.17;;;29.08;;
49738;SDS011;53662;50.114;8.626;2024-03-07T01:05:30;49.47;;;29.85;;
49738;SDS011;53662;50.114;8.626;2024-03-07T01:08:02;44.65;;;29.50;;
49738;SDS011;53662;50.114;8.626;2024-03-07T01:10:28;49.35;;;29.70;;
49738;SDS011;53662;50.114;8.626;2024-03-07T01:12:54;51.50;;;30.35;;
49738;SDS011;53662;50.114;8.626;2024-03-07T01:15:22;49.63;;;29.67;;
49738;SDS011;53662;50.114;8.626;2024-03-07T01:17:48;48.03;;;29.40;;
49738;SDS011;53662;50.114;8.626;2024-03-07T01:20:14;47.90;;;29.05;;
49738;SDS011;53662;50.114;8.626;2024-03-07T01:22:40;53.42;;;29.13;;
49738;SDS011;53662;50.114;8.626;2024-03-07T01:25:06;50.75;;;30.00;;
49738;SDS011;53662;50.114;8.626;2024-03-07T01:27:32;57.22;;;31.02;;
49738;SDS011;53662;50.114;8.626;2024-03-07T01:29:58;45.30;;;30.48;;
49738;SDS011;53662;50.114;8.626;2024-03-07T01:32:24;47.30;;;30.88;;
49738;SDS011;53662;50.114;8.626;2024-03-07T01:34:50;57.15;;;33.13;;
49738;SDS011;53662;50.114;8.626;2024-03-07T01:37:16;51.80;;;30.50;;
49738;SDS011;53662;50.114;8.626;2024-03-07T01:39:42;47.38;;;30.90;;
49738;SDS011;53662;50.114;8.626;2024-03-07T01:42:08;51.05;;;30.40;;
49738;SDS011;53662;50.114;8.626;2024-03-07T01:44:34;56.83;;;31.45;;
49738;SDS011;53662;50.114;8.626;2024-03-07T01:47:00;52.20;;;30.70;;
49738;SDS011;53662;50.114;8.626;2024-03-07T01:49:29;48.92;;;30.08;;
49738;SDS011;53662;50.114;8.626;2024-03-07T01:51:55;54.85;;;30.92;;
49738;SDS011;53662;50.114;8.626;2024-03-07T01:54:22;49.38;;;29.30;;
49738;SDS011;53662;50.114;8.626;2024-03-07T01:56:48;50.08;;;30.52;;
49738;SDS011;53662;50.114;8.626;2024-03-07T01:59:14;51.22;;;28.80;;
49738;SDS011;53662;50.114;8.626;2024-03-07T02:01:40;48.35;;;29.70;;
49738;SDS011;53662;50.114;8.626;2024-03-07T02:04:08;50.28;;;29.63;;
49738;SDS011;53662;50.114;8.626;2024-03-07T02:06:34;48.00;;;28.42;;
49738;SDS011;53662;50.114;8.626;2024-03-07T02:09:00;47.05;;;29.52;;
49738;SDS011;53662;50.114;8.626;2024-03-07T02:11:27;51.60;;;29.83;;
49738;SDS011;53662;50.114;8.626;2024-03-07T02:13:53;54.40;;;30.63;;
49738;SDS011;53662;50.114;8.626;2024-03-07T02:16:19;57.83;;;30.10;;
49738;SDS011;53662;50.114;8.626;2024-03-07T02:18:45;46.55;;;29.83;;
49738;SDS011;53662;50.114;8.626;2024-03-07T02:21:11;41.67;;;27.55;;
49738;SDS011;53662;50.114;8.626;2024-03-07T02:23:37;50.40;;;30.13;;
49738;SDS011;53662;50.114;8.626;2024-03-07T02:26:03;45.45;;;28.45;;
49738;SDS011;53662;50.114;8.626;2024-03-07T02:28:29;43.65;;;27.88;;
49738;SDS011;53662;50.114;8.626;2024-03-07T02:30:55;50.10;;;29.80;;
49738;SDS011;53662;50.114;8.626;2024-03-07T02:33:21;51.42;;;29.00;;
49738;SDS011;53662;50.114;8.626;2024-03-07T02:35:48;46.65;;;29.23;;
49738;SDS011;53662;50.114;8.626;2024-03-07T02:38:14;50.97;;;27.58;;
49738;SDS011;53662;50.114;8.626;2024-03-07T02:40:40;45.95;;;29.23;;
49738;SDS011;53662;50.114;8.626;2024-03-07T02:43:06;43.50;;;28.58;;
49738;SDS011;53662;50.114;8.626;2024-03-07T02:45:32;47.97;;;27.15;;
49738;SDS011;53662;50.114;8.626;2024-03-07T02:47:58;42.55;;;27.08;;
49738;SDS011;53662;50.114;8.626;2024-03-07T02:50:23;43.55;;;26.20;;
49738;SDS011;53662;50.114;8.626;2024-03-07T02:52:49;40.13;;;26.45;;
49738;SDS011;53662;50.114;8.626;2024-03-07T02:55:17;46.35;;;26.92;;
49738;SDS011;53662;50.114;8.626;2024-03-07T02:57:44;48.33;;;26.58;;
49738;SDS011;53662;50.114;8.626;2024-03-07T03:00:10;40.63;;;25.42;;
49738;SDS011;53662;50.114;8.626;2024-03-07T03:02:48;50.75;;;25.70;;
49738;SDS011;53662;50.114;8.626;2024-03-07T03:05:15;45.45;;;25.75;;
49738;SDS011;53662;50.114;8.626;2024-03-07T03:07:41;45.58;;;26.30;;
49738;SDS011;53662;50.114;8.626;2024-03-07T03:10:18;45.45;;;24.45;;
49738;SDS011;53662;50.114;8.626;2024-03-07T03:12:45;37.47;;;25.02;;
49738;SDS011;53662;50.114;8.626;2024-03-07T03:15:12;40.17;;;23.55;;
49738;SDS011;53662;50.114;8.626;2024-03-07T03:17:40;41.67;;;24.45;;
49738;SDS011;53662;50.114;8.626;2024-03-07T03:20:06;41.13;;;24.25;;
49738;SDS011;53662;50.114;8.626;2024-03-07T03:22:40;38.05;;;23.75;;
49738;SDS011;53662;50.114;8.626;2024-03-07T03:25:08;39.60;;;23.90;;
49738;SDS011;53662;50.114;8.626;2024-03-07T03:27:36;38.38;;;24.88;;
49738;SDS011;53662;50.114;8.626;2024-03-07T03:30:02;40.72;;;24.33;;
49738;SDS011;53662;50.114;8.626;2024-03-07T03:32:29;41.65;;;22.90;;
49738;SDS011;53662;50.114;8.626;2024-03-07T03:34:55;43.72;;;23.73;;
49738;SDS011;53662;50.114;8.626;2024-03-07T03:37:21;40.25;;;23.85;;
49738;SDS011;53662;50.114;8.626;2024-03-07T03:39:46;37.58;;;22.92;;
49738;SDS011;53662;50.114;8.626;2024-03-07T03:42:14;34.50;;;22.10;;
49738;SDS011;53662;50.114;8.626;2024-03-07T03:44:40;39.75;;;23.52;;
49738;SDS011;53662;50.114;8.626;2024-03-07T03:47:06;39.95;;;22.48;;
49738;SDS011;53662;50.114;8.626;2024-03-07T03:49:32;37.08;;;22.30;;
49738;SDS011;53662;50.114;8.626;2024-03-07T03:52:02;45.03;;;23.42;;
49738;SDS011;53662;50.114;8.626;2024-03-07T03:54:27;36.75;;;22.77;;
49738;SDS011;53662;50.114;8.626;2024-03-07T03:56:54;36.95;;;22.23;;
49738;SDS011;53662;50.114;8.626;2024-03-07T03:59:20;38.33;;;23.05;;
49738;SDS011;53662;50.114;8.626;2024-03-07T04:01:46;34.83;;;22.33;;
49738;SDS011;53662;50.114;8.626;2024-03-07T04:04:13;40.30;;;22.83;;
49738;SDS011;53662;50.114;8.626;2024-03-07T04:06:39;50.45;;;22.20;;
49738;SDS011;53662;50.114;8.626;2024-03-07T04:09:07;40.63;;;22.83;;
49738;SDS011;53662;50.114;8.626;2024-03-07T04:11:33;35.45;;;21.67;;
49738;SDS011;53662;50.114;8.626;2024-03-07T04:13:59;38.70;;;22.40;;
49738;SDS011;53662;50.114;8.626;2024-03-07T04:16:26;38.03;;;22.90;;
49738;SDS011;53662;50.114;8.626;2024-03-07T04:18:54;33.58;;;21.10;;
49738;SDS011;53662;50.114;8.626;2024-03-07T04:21:20;27.60;;;20.13;;
49738;SDS011;53662;50.114;8.626;2024-03-07T04:23:46;35.10;;;20.55;;
49738;SDS011;53662;50.114;8.626;2024-03-07T04:26:12;34.13;;;21.20;;
49738;SDS011;53662;50.114;8.626;2024-03-07T04:28:41;32.85;;;19.88;;
49738;SDS011;53662;50.114;8.626;2024-03-07T04:31:07;35.83;;;19.90;;
49738;SDS011;53662;50.114;8.626;2024-03-07T04:33:39;35.40;;;21.00;;
49738;SDS011;53662;50.114;8.626;2024-03-07T04:36:05;26.75;;;19.52;;
49738;SDS011;53662;50.114;8.626;2024-03-07T04:38:33;35.70;;;19.27;;
49738;SDS011;53662;50.114;8.626;2024-03-07T04:40:59;33.97;;;20.60;;
49738;SDS011;53662;50.114;8.626;2024-03-07T04:43:25;31.55;;;20.05;;
49738;SDS011;53662;50.114;8.626;2024-03-07T04:45:51;32.55;;;19.63;;
49738;SDS011;53662;50.114;8.626;2024-03-07T04:48:17;29.90;;;19.40;;
49738;SDS011;53662;50.114;8.626;2024-03-07T04:50:43;28.88;;;18.88;;
49738;SDS011;53662;50.114;8.626;2024-03-07T04:53:09;34.65;;;21.13;;
49738;SDS011;53662;50.114;8.626;2024-03-07T04:55:35;33.25;;;19.75;;
49738;SDS011;53662;50.114;8.626;2024-03-07T04:58:01;31.52;;;20.98;;
49738;SDS011;53662;50.114;8.626;2024-03-07T05:00:27;32.05;;;19.52;;
49738;SDS011;53662;50.114;8.626;2024-03-07T05:02:54;30.90;;;19.88;;
49738;SDS011;53662;50.114;8.626;2024-03-07T05:05:20;35.17;;;20.45;;
49738;SDS011;53662;50.114;8.626;2024-03-07T05:07:51;30.83;;;19.98;;
49738;SDS011;53662;50.114;8.626;2024-03-07T05:10:17;28.75;;;18.65;;
49738;SDS011;53662;50.114;8.626;2024-03-07T05:12:43;34.05;;;19.80;;
49738;SDS011;53662;50.114;8.626;2024-03-07T05:15:09;29.85;;;20.25;;
49738;SDS011;53662;50.114;8.626;2024-03-07T05:17:35;31.13;;;19.52;;
49738;SDS011;53662;50.114;8.626;2024-03-07T05:20:03;35.58;;;19.42;;
49738;SDS011;53662;50.114;8.626;2024-03-07T05:25:03;28.83;;;18.95;;
49738;SDS011;53662;50.114;8.626;2024-03-07T05:27:30;34.70;;;19.20;;
49738;SDS011;53662;50.114;8.626;2024-03-07T05:29:56;33.42;;;19.73;;
49738;SDS011;53662;50.114;8.626;2024-03-07T05:32:25;30.30;;;19.35;;
49738;SDS011;53662;50.114;8.626;2024-03-07T05:34:51;34.35;;;20.88;;
49738;SDS011;53662;50.114;8.626;2024-03-07T05:37:20;30.58;;;19.35;;
49738;SDS011;53662;50.114;8.626;2024-03-07T05:39:50;34.45;;;20.08;;
49738;SDS011;53662;50.114;8.626;2024-03-07T05:42:16;34.90;;;19.85;;
49738;SDS011;53662;50.114;8.626;2024-03-07T05:44:42;33.10;;;19.50;;
49738;SDS011;53662;50.114;8.626;2024-03-07T05:47:08;31.08;;;19.02;;
49738;SDS011;53662;50.114;8.626;2024-03-07T05:49:36;33.50;;;18.23;;
49738;SDS011;53662;50.114;8.626;2024-03-07T05:52:03;33.80;;;18.98;;
49738;SDS011;53662;50.114;8.626;2024-03-07T05:54:30;29.17;;;19.17;;
49738;SDS011;53662;50.114;8.626;2024-03-07T05:56:56;35.75;;;19.88;;
49738;SDS011;53662;50.114;8.626;2024-03-07T05:59:22;31.90;;;19.20;;
49738;SDS011;53662;50.114;8.626;2024-03-07T06:01:48;33.28;;;19.98;;
49738;SDS011;53662;50.114;8.626;2024-03-07T06:04:15;33.05;;;20.45;;
49738;SDS011;53662;50.114;8.626;2024-03-07T06:06:42;27.13;;;18.77;;
49738;SDS011;53662;50.114;8.626;2024-03-07T06:09:11;42.03;;;20.33;;
49738;SDS011;53662;50.114;8.626;2024-03-07T06:11:39;46.25;;;18.70;;
49738;SDS011;53662;50.114;8.626;2024-03-07T06:14:07;46.75;;;20.73;;
49738;SDS011;53662;50.114;8.626;2024-03-07T06:16:33;31.35;;;18.85;;
49738;SDS011;53662;50.114;8.626;2024-03-07T06:19:00;36.47;;;19.70;;
49738;SDS011;53662;50.114;8.626;2024-03-07T06:21:26;35.20;;;19.17;;
49738;SDS011;53662;50.114;8.626;2024-03-07T06:23:53;87.13;;;22.10;;
49738;SDS011;53662;50.114;8.626;2024-03-07T06:26:25;59.50;;;20.98;;
49738;SDS011;53662;50.114;8.626;2024-03-07T06:29:05;37.63;;;20.13;;
49738;SDS011;53662;50.114;8.626;2024-03-07T06:31:31;36.25;;;19.05;;
49738;SDS011;53662;50.114;8.626;2024-03-07T06:33:58;30.48;;;19.27;;
49738;SDS011;53662;50.114;8.626;2024-03-07T06:36:24;36.83;;;19.15;;
49738;SDS011;53662;50.114;8.626;2024-03-07T06:38:50;60.25;;;20.13;;
49738;SDS011;53662;50.114;8.626;2024-03-07T06:41:16;202.65;;;25.88;;
49738;SDS011;53662;50.114;8.626;2024-03-07T06:43:43;46.15;;;19.67;;
49738;SDS011;53662;50.114;8.626;2024-03-07T06:46:12;44.88;;;20.25;;
49738;SDS011;53662;50.114;8.626;2024-03-07T06:48:38;29.20;;;19.40;;
49738;SDS011;53662;50.114;8.626;2024-03-07T06:51:05;37.28;;;20.25;;
49738;SDS011;53662;50.114;8.626;2024-03-07T06:53:31;31.88;;;19.67;;
49738;SDS011;53662;50.114;8.626;2024-03-07T06:55:58;30.17;;;19.00;;
49738;SDS011;53662;50.114;8.626;2024-03-07T06:58:24;27.27;;;15.82;;
49738;SDS011;53662;50.114;8.626;2024-03-07T07:00:51;28.08;;;15.80;;
49738;SDS011;53662;50.114;8.626;2024-03-07T07:03:19;28.58;;;15.85;;
49738;SDS011;53662;50.114;8.626;2024-03-07T07:05:45;28.10;;;16.80;;
49738;SDS011;53662;50.114;8.626;2024-03-07T07:08:11;78.10;;;19.02;;
49738;SDS011;53662;50.114;8.626;2024-03-07T07:10:38;133.60;;;22.65;;
49738;SDS011;53662;50.114;8.626;2024-03-07T07:13:05;50.50;;;19.38;;
49738;SDS011;53662;50.114;8.626;2024-03-07T07:15:31;33.53;;;19.52;;
49738;SDS011;53662;50.114;8.626;2024-03-07T07:17:57;32.58;;;20.02;;
49738;SDS011;53662;50.114;8.626;2024-03-07T07:20:24;42.97;;;19.52;;
49738;SDS011;53662;50.114;8.626;2024-03-07T07:22:50;32.83;;;19.90;;
49738;SDS011;53662;50.114;8.626;2024-03-07T07:25:18;33.78;;;20.13;;
49738;SDS011;53662;50.114;8.626;2024-03-07T07:30:11;32.60;;;19.30;;
49738;SDS011;53662;50.114;8.626;2024-03-07T07:32:38;48.53;;;19.65;;
49738;SDS011;53662;50.114;8.626;2024-03-07T07:35:04;47.17;;;19.10;;
49738;SDS011;53662;50.114;8.626;2024-03-07T07:37:36;38.20;;;20.45;;
49738;SDS011;53662;50.114;8.626;2024-03-07T07:40:02;82.97;;;22.08;;
49738;SDS011;53662;50.114;8.626;2024-03-07T07:42:28;39.92;;;21.00;;
49738;SDS011;53662;50.114;8.626;2024-03-07T07:44:54;32.95;;;20.38;;
49738;SDS011;53662;50.114;8.626;2024-03-07T07:47:20;28.30;;;19.65;;
49738;SDS011;53662;50.114;8.626;2024-03-07T07:49:46;35.08;;;20.13;;
49738;SDS011;53662;50.114;8.626;2024-03-07T07:52:13;66.93;;;21.38;;
49738;SDS011;53662;50.114;8.626;2024-03-07T07:54:42;31.58;;;21.30;;
49738;SDS011;53662;50.114;8.626;2024-03-07T07:57:08;33.47;;;20.35;;
49738;SDS011;53662;50.114;8.626;2024-03-07T07:59:34;41.00;;;21.02;;
49738;SDS011;53662;50.114;8.626;2024-03-07T08:02:01;46.53;;;20.10;;
49738;SDS011;53662;50.114;8.626;2024-03-07T08:04:31;37.47;;;19.17;;
49738;SDS011;53662;50.114;8.626;2024-03-07T08:06:57;37.95;;;21.60;;
49738;SDS011;53662;50.114;8.626;2024-03-07T08:09:23;62.67;;;21.52;;
49738;SDS011;53662;50.114;8.626;2024-03-07T08:11:49;36.35;;;20.42;;
49738;SDS011;53662;50.114;8.626;2024-03-07T08:14:17;34.50;;;19.85;;
49738;SDS011;53662;50.114;8.626;2024-03-07T08:16:43;41.83;;;20.85;;
49738;SDS011;53662;50.114;8.626;2024-03-07T08:19:09;37.28;;;20.52;;
49738;SDS011;53662;50.114;8.626;2024-03-07T08:21:36;35.30;;;19.52;;
49738;SDS011;53662;50.114;8.626;2024-03-07T08:24:02;58.95;;;20.52;;
49738;SDS011;53662;50.114;8.626;2024-03-07T08:26:35;30.20;;;18.52;;
49738;SDS011;53662;50.114;8.626;2024-03-07T08:29:02;33.60;;;20.08;;
49738;SDS011;53662;50.114;8.626;2024-03-07T08:31:28;30.15;;;19.35;;
49738;SDS011;53662;50.114;8.626;2024-03-07T08:33:53;30.80;;;18.80;;
49738;SDS011;53662;50.114;8.626;2024-03-07T08:36:19;30.00;;;18.88;;
49738;SDS011;53662;50.114;8.626;2024-03-07T08:38:47;28.95;;;18.88;;
49738;SDS011;53662;50.114;8.626;2024-03-07T08:41:13;40.53;;;19.38;;
49738;SDS011;53662;50.114;8.626;2024-03-07T08:43:39;27.10;;;18.40;;
49738;SDS011;53662;50.114;8.626;2024-03-07T08:46:06;31.73;;;18.88;;
49738;SDS011;53662;50.114;8.626;2024-03-07T08:48:33;29.10;;;18.67;;
49738;SDS011;53662;50.114;8.626;2024-03-07T08:51:00;29.70;;;16.80;;
49738;SDS011;53662;50.114;8.626;2024-03-07T08:53:26;26.58;;;17.35;;
49738;SDS011;53662;50.114;8.626;2024-03-07T08:55:52;33.38;;;19.95;;
49738;SDS011;53662;50.114;8.626;2024-03-07T08:58:18;34.33;;;20.52;;
49738;SDS011;53662;50.114;8.626;2024-03-07T09:00:44;37.75;;;19.92;;
49738;SDS011;53662;50.114;8.626;2024-03-07T09:03:10;40.40;;;20.02;;
49738;SDS011;53662;50.114;8.626;2024-03-07T09:05:37;27.70;;;19.00;;
49738;SDS011;53662;50.114;8.626;2024-03-07T09:08:04;36.70;;;19.85;;
49738;SDS011;53662;50.114;8.626;2024-03-07T09:10:30;31.33;;;20.98;;
49738;SDS011;53662;50.114;8.626;2024-03-07T09:12:56;39.97;;;19.98;;
49738;SDS011;53662;50.114;8.626;2024-03-07T09:15:22;26.48;;;17.85;;
49738;SDS011;53662;50.114;8.626;2024-03-07T09:17:48;32.92;;;18.60;;
49738;SDS011;53662;50.114;8.626;2024-03-07T09:20:14;33.00;;;17.55;;
49738;SDS011;53662;50.114;8.626;2024-03-07T09:22:41;31.17;;;17.50;;
49738;SDS011;53662;50.114;8.626;2024-03-07T09:25:07;29.23;;;18.52;;
49738;SDS011;53662;50.114;8.626;2024-03-07T09:27:33;30.05;;;19.08;;
49738;SDS011;53662;50.114;8.626;2024-03-07T09:29:59;34.22;;;19.02;;
49738;SDS011;53662;50.114;8.626;2024-03-07T09:32:25;50.28;;;19.13;;
49738;SDS011;53662;50.114;8.626;2024-03-07T09:34:53;31.48;;;18.10;;
49738;SDS011;53662;50.114;8.626;2024-03-07T09:37:19;40.97;;;17.30;;
49738;SDS011;53662;50.114;8.626;2024-03-07T09:39:48;36.58;;;17.40;;
49738;SDS011;53662;50.114;8.626;2024-03-07T09:42:14;44.75;;;18.17;;
49738;SDS011;53662;50.114;8.626;2024-03-07T09:44:42;31.45;;;17.85;;
49738;SDS011;53662;50.114;8.626;2024-03-07T09:47:09;44.15;;;19.73;;
49738;SDS011;53662;50.114;8.626;2024-03-07T09:49:36;27.90;;;15.77;;
49738;SDS011;53662;50.114;8.626;2024-03-07T09:52:04;30.08;;;17.83;;
49738;SDS011;53662;50.114;8.626;2024-03-07T09:54:30;31.67;;;17.27;;
49738;SDS011;53662;50.114;8.626;2024-03-07T09:56:57;26.40;;;16.67;;
49738;SDS011;53662;50.114;8.626;2024-03-07T09:59:27;20.17;;;12.85;;
49738;SDS011;53662;50.114;8.626;2024-03-07T10:01:54;73.32;;;18.58;;
49738;SDS011;53662;50.114;8.626;2024-03-07T10:04:26;46.42;;;17.63;;
49738;SDS011;53662;50.114;8.626;2024-03-07T10:06:55;40.30;;;17.33;;
49738;SDS011;53662;50.114;8.626;2024-03-07T10:09:21;36.17;;;17.77;;
49738;SDS011;53662;50.114;8.626;2024-03-07T10:12:00;32.25;;;17.05;;
49738;SDS011;53662;50.114;8.626;2024-03-07T10:14:27;36.75;;;16.92;;
49738;SDS011;53662;50.114;8.626;2024-03-07T10:16:57;25.83;;;17.38;;
49738;SDS011;53662;50.114;8.626;2024-03-07T10:19:23;22.90;;;16.02;;
49738;SDS011;53662;50.114;8.626;2024-03-07T10:21:50;30.48;;;17.73;;
49738;SDS011;53662;50.114;8.626;2024-03-07T10:24:17;44.72;;;17.70;;
49738;SDS011;53662;50.114;8.626;2024-03-07T10:26:43;40.97;;;17.05;;
49738;SDS011;53662;50.114;8.626;2024-03-07T10:29:10;31.50;;;16.45;;
49738;SDS011;53662;50.114;8.626;2024-03-07T10:31:36;27.73;;;16.27;;
49738;SDS011;53662;50.114;8.626;2024-03-07T10:34:03;33.20;;;17.40;;
49738;SDS011;53662;50.114;8.626;2024-03-07T10:36:30;25.65;;;17.35;;
49738;SDS011;53662;50.114;8.626;2024-03-07T10:39:02;32.25;;;17.48;;
49738;SDS011;53662;50.114;8.626;2024-03-07T10:41:48;47.33;;;18.92;;
49738;SDS011;53662;50.114;8.626;2024-03-07T10:44:24;30.15;;;16.92;;
49738;SDS011;53662;50.114;8.626;2024-03-07T10:46:55;31.85;;;17.10;;
49738;SDS011;53662;50.114;8.626;2024-03-07T10:49:25;38.15;;;17.35;;
49738;SDS011;53662;50.114;8.626;2024-03-07T10:52:03;26.33;;;16.55;;
49738;SDS011;53662;50.114;8.626;2024-03-07T10:57:20;39.25;;;17.27;;
49738;SDS011;53662;50.114;8.626;2024-03-07T10:59:49;33.15;;;16.73;;
49738;SDS011;53662;50.114;8.626;2024-03-07T11:02:34;31.65;;;17.73;;
49738;SDS011;53662;50.114;8.626;2024-03-07T11:05:03;26.33;;;17.25;;
49738;SDS011;53662;50.114;8.626;2024-03-07T11:07:33;33.17;;;15.63;;
49738;SDS011;53662;50.114;8.626;2024-03-07T11:09:59;30.58;;;16.77;;
49738;SDS011;53662;50.114;8.626;2024-03-07T11:12:28;27.83;;;17.02;;
49738;SDS011;53662;50.114;8.626;2024-03-07T11:14:55;94.72;;;19.30;;
49738;SDS011;53662;50.114;8.626;2024-03-07T11:17:22;31.40;;;17.23;;
49738;SDS011;53662;50.114;8.626;2024-03-07T11:19:49;28.67;;;15.63;;
49738;SDS011;53662;50.114;8.626;2024-03-07T11:22:30;32.70;;;17.95;;
49738;SDS011;53662;50.114;8.626;2024-03-07T11:25:00;31.00;;;18.65;;
49738;SDS011;53662;50.114;8.626;2024-03-07T11:27:31;47.45;;;17.85;;
49738;SDS011;53662;50.114;8.626;2024-03-07T11:30:03;47.50;;;18.75;;
49738;SDS011;53662;50.114;8.626;2024-03-07T11:32:34;38.38;;;18.20;;
49738;SDS011;53662;50.114;8.626;2024-03-07T11:35:00;31.73;;;17.75;;
49738;SDS011;53662;50.114;8.626;2024-03-07T11:37:39;49.45;;;17.25;;
49738;SDS011;53662;50.114;8.626;2024-03-07T11:40:08;34.58;;;19.27;;
49738;SDS011;53662;50.114;8.626;2024-03-07T11:42:43;34.90;;;17.05;;
49738;SDS011;53662;50.114;8.626;2024-03-07T11:45:09;30.98;;;17.60;;
49738;SDS011;53662;50.114;8.626;2024-03-07T11:47:45;27.20;;;17.90;;
49738;SDS011;53662;50.114;8.626;2024-03-07T11:50:11;28.17;;;16.38;;
49738;SDS011;53662;50.114;8.626;2024-03-07T11:52:38;39.90;;;16.42;;
49738;SDS011;53662;50.114;8.626;2024-03-07T11:55:07;26.27;;;14.57;;
49738;SDS011;53662;50.114;8.626;2024-03-07T11:57:33;18.48;;;13.68;;
49738;SDS011;53662;50.114;8.626;2024-03-07T11:59:59;27.70;;;15.70;;
49738;SDS011;53662;50.114;8.626;2024-03-07T12:02:26;27.70;;;15.50;;
49738;SDS011;53662;50.114;8.626;2024-03-07T12:04:53;20.83;;;14.30;;
49738;SDS011;53662;50.114;8.626;2024-03-07T12:07:19;23.98;;;14.82;;
49738;SDS011;53662;50.114;8.626;2024-03-07T12:09:47;24.65;;;15.43;;
49738;SDS011;53662;50.114;8.626;2024-03-07T12:12:19;24.05;;;12.18;;
49738;SDS011;53662;50.114;8.626;2024-03-07T12:14:55;21.90;;;14.02;;
49738;SDS011;53662;50.114;8.626;2024-03-07T12:17:21;18.85;;;12.73;;
49738;SDS011;53662;50.114;8.626;2024-03-07T12:19:47;25.48;;;15.07;;
49738;SDS011;53662;50.114;8.626;2024-03-07T12:22:16;19.38;;;14.05;;
49738;SDS011;53662;50.114;8.626;2024-03-07T12:24:47;27.15;;;14.27;;
49738;SDS011;53662;50.114;8.626;2024-03-07T12:27:15;29.95;;;14.27;;
49738;SDS011;53662;50.114;8.626;2024-03-07T12:29:42;23.80;;;13.65;;
49738;SDS011;53662;50.114;8.626;2024-03-07T12:32:09;24.35;;;14.10;;
49738;SDS011;53662;50.114;8.626;2024-03-07T12:34:42;21.90;;;13.13;;
49738;SDS011;53662;50.114;8.626;2024-03-07T12:37:11;28.88;;;12.45;;
49738;SDS011;53662;50.114;8.626;2024-03-07T12:39:40;18.90;;;12.85;;
49738;SDS011;53662;50.114;8.626;2024-03-07T12:42:14;18.88;;;12.90;;
49738;SDS011;53662;50.114;8.626;2024-03-07T12:44:42;21.25;;;12.50;;
49738;SDS011;53662;50.114;8.626;2024-03-07T12:47:10;18.55;;;11.68;;
49738;SDS011;53662;50.114;8.626;2024-03-07T12:49:36;25.80;;;12.20;;
49738;SDS011;53662;50.114;8.626;2024-03-07T12:52:03;19.40;;;12.90;;
49738;SDS011;53662;50.114;8.626;2024-03-07T12:54:29;26.20;;;11.45;;
49738;SDS011;53662;50.114;8.626;2024-03-07T12:56:55;19.85;;;11.63;;
49738;SDS011;53662;50.114;8.626;2024-03-07T12:59:21;21.65;;;11.45;;
49738;SDS011;53662;50.114;8.626;2024-03-07T13:01:49;14.90;;;11.02;;
49738;SDS011;53662;50.114;8.626;2024-03-07T13:04:15;13.05;;;10.07;;
49738;SDS011;53662;50.114;8.626;2024-03-07T13:06:41;19.15;;;11.10;;
49738;SDS011;53662;50.114;8.626;2024-03-07T13:09:11;25.83;;;11.40;;
49738;SDS011;53662;50.114;8.626;2024-03-07T13:11:37;56.92;;;11.60;;
49738;SDS011;53662;50.114;8.626;2024-03-07T13:14:07;16.23;;;10.95;;
49738;SDS011;53662;50.114;8.626;2024-03-07T13:16:34;20.73;;;11.45;;
49738;SDS011;53662;50.114;8.626;2024-03-07T13:19:00;17.58;;;10.38;;
49738;SDS011;53662;50.114;8.626;2024-03-07T13:21:29;18.35;;;11.43;;
49738;SDS011;53662;50.114;8.626;2024-03-07T13:23:56;16.42;;;9.95;;
49738;SDS011;53662;50.114;8.626;2024-03-07T13:26:23;13.18;;;10.50;;
49738;SDS011;53662;50.114;8.626;2024-03-07T13:28:51;25.00;;;11.95;;
49738;SDS011;53662;50.114;8.626;2024-03-07T13:31:18;24.02;;;10.93;;
49738;SDS011;53662;50.114;8.626;2024-03-07T13:33:44;27.50;;;11.75;;
49738;SDS011;53662;50.114;8.626;2024-03-07T13:36:10;18.35;;;10.25;;
49738;SDS011;53662;50.114;8.626;2024-03-07T13:38:36;19.52;;;10.88;;
49738;SDS011;53662;50.114;8.626;2024-03-07T13:41:03;23.23;;;12.00;;
49738;SDS011;53662;50.114;8.626;2024-03-07T13:43:32;14.20;;;11.18;;
49738;SDS011;53662;50.114;8.626;2024-03-07T13:45:59;16.30;;;10.60;;
49738;SDS011;53662;50.114;8.626;2024-03-07T13:48:25;19.50;;;10.65;;
49738;SDS011;53662;50.114;8.626;2024-03-07T13:50:51;16.88;;;10.65;;
49738;SDS011;53662;50.114;8.626;2024-03-07T13:53:19;191.20;;;17.95;;
49738;SDS011;53662;50.114;8.626;2024-03-07T14:03:59;26.10;;;10.63;;
49738;SDS011;53662;50.114;8.626;2024-03-07T14:06:49;33.95;;;11.30;;
49738;SDS011;53662;50.114;8.626;2024-03-07T14:09:41;23.50;;;10.95;;
49738;SDS011;53662;50.114;8.626;2024-03-07T14:12:15;29.40;;;12.10;;
49738;SDS011;53662;50.114;8.626;2024-03-07T14:14:50;15.40;;;10.82;;
49738;SDS011;53662;50.114;8.626;2024-03-07T14:30:46;14.30;;;11.48;;
49738;SDS011;53662;50.114;8.626;2024-03-07T14:33:18;19.08;;;11.43;;
49738;SDS011;53662;50.114;8.626;2024-03-07T14:36:07;13.23;;;10.23;;
49738;SDS011;53662;50.114;8.626;2024-03-07T14:38:54;20.58;;;10.93;;
49738;SDS011;53662;50.114;8.626;2024-03-07T14:41:40;19.08;;;11.07;;
49738;SDS011;53662;50.114;8.626;2024-03-07T14:44:08;24.15;;;11.60;;
49738;SDS011;53662;50.114;8.626;2024-03-07T14:46:35;13.95;;;9.98;;
49738;SDS011;53662;50.114;8.626;2024-03-07T14:49:02;25.13;;;11.68;;
49738;SDS011;53662;50.114;8.626;2024-03-07T14:51:29;20.90;;;10.10;;
49738;SDS011;53662;50.114;8.626;2024-03-07T14:53:55;33.40;;;10.70;;